sensor_id;sensor_type;location;lat;lon;timestamp;pressure;altitude;pressure_sealevel;temperature;humidity
74881;BME280;63427;49.654;6.596;2023-07-13T00:01:05;99739.65;;;18.28;35.40
74881;BME280;63427;49.654;6.596;2023-07-13T00:03:31;99745.41;;;18.59;34.75
74881;BME280;63427;49.654;6.596;2023-07-13T00:05:58;99742.94;;;18.12;35.51
74881;BME280;63427;49.654;6.596;2023-07-13T00:08:21;99740.78;;;18.57;35.24
74881;BME280;63427;49.654;6.596;2023-07-13T00:10:47;99742.00;;;18.31;36.40
74881;BME280;63427;49.654;6.596;2023-07-13T00:13:12;99741.08;;;18.31;35.64
74881;BME280;63427;49.654;6.596;2023-07-13T00:15:37;99737.06;;;17.82;36.66
74881;BME280;63427;49.654;6.596;2023-07-13T00:18:03;99737.21;;;18.15;36.13
74881;BME280;63427;49.654;6.596;2023-07-13T00:20:28;99734.29;;;18.13;36.00
74881;BME280;63427;49.654;6.596;2023-07-13T00:22:54;99731.22;;;18.08;36.71
74881;BME280;63427;49.654;6.596;2023-07-13T00:25:19;99727.95;;;17.89;36.49
74881;BME280;63427;49.654;6.596;2023-07-13T00:27:44;99726.97;;;18.07;36.24
74881;BME280;63427;49.654;6.596;2023-07-13T00:30:11;99726.04;;;18.11;36.83
74881;BME280;63427;49.654;6.596;2023-07-13T00:32:35;99728.34;;;18.30;35.67
74881;BME280;63427;49.654;6.596;2023-07-13T00:35:01;99725.27;;;17.94;35.48
74881;BME280;63427;49.654;6.596;2023-07-13T00:37:26;99716.79;;;18.41;35.66
74881;BME280;63427;49.654;6.596;2023-07-13T00:39:51;99722.41;;;17.91;36.23
74881;BME280;63427;49.654;6.596;2023-07-13T00:42:16;99726.51;;;18.17;36.29
74881;BME280;63427;49.654;6.596;2023-07-13T00:47:07;99729.43;;;17.98;37.29
74881;BME280;63427;49.654;6.596;2023-07-13T00:49:34;99731.05;;;17.98;36.40
74881;BME280;63427;49.654;6.596;2023-07-13T00:52:00;99730.39;;;18.13;35.91
74881;BME280;63427;49.654;6.596;2023-07-13T00:54:30;99727.78;;;17.96;35.96
74881;BME280;63427;49.654;6.596;2023-07-13T00:56:51;99729.73;;;17.88;35.95
74881;BME280;63427;49.654;6.596;2023-07-13T00:59:15;99730.24;;;18.56;35.58
74881;BME280;63427;49.654;6.596;2023-07-13T01:01:39;99731.30;;;17.96;36.45
74881;BME280;63427;49.654;6.596;2023-07-13T01:04:05;99729.10;;;17.95;37.03
74881;BME280;63427;49.654;6.596;2023-07-13T01:06:30;99725.34;;;18.20;36.03
74881;BME280;63427;49.654;6.596;2023-07-13T01:08:56;99729.60;;;18.42;35.94
74881;BME280;63427;49.654;6.596;2023-07-13T01:11:22;99733.20;;;18.14;36.37
74881;BME280;63427;49.654;6.596;2023-07-13T01:13:46;99737.57;;;18.66;35.95
74881;BME280;63427;49.654;6.596;2023-07-13T01:16:18;99738.12;;;18.27;36.66
74881;BME280;63427;49.654;6.596;2023-07-13T01:18:37;99734.94;;;18.36;35.96
74881;BME280;63427;49.654;6.596;2023-07-13T01:21:04;99733.18;;;18.37;36.57
74881;BME280;63427;49.654;6.596;2023-07-13T01:23:29;99741.27;;;18.47;36.42
74881;BME280;63427;49.654;6.596;2023-07-13T01:25:53;99745.12;;;18.44;37.31
74881;BME280;63427;49.654;6.596;2023-07-13T01:28:19;99752.09;;;18.69;36.24
74881;BME280;63427;49.654;6.596;2023-07-13T01:30:46;99752.48;;;18.59;36.40
74881;BME280;63427;49.654;6.596;2023-07-13T01:33:10;99750.56;;;18.61;35.45
74881;BME280;63427;49.654;6.596;2023-07-13T01:35:35;99745.68;;;18.10;35.50
74881;BME280;63427;49.654;6.596;2023-07-13T01:38:01;99747.85;;;18.66;36.62
74881;BME280;63427;49.654;6.596;2023-07-13T01:40:26;99746.67;;;19.07;35.19
74881;BME280;63427;49.654;6.596;2023-07-13T01:42:51;99750.42;;;18.83;35.47
74881;BME280;63427;49.654;6.596;2023-07-13T01:45:16;99753.01;;;18.90;35.68
74881;BME280;63427;49.654;6.596;2023-07-13T01:47:42;99750.31;;;18.91;36.09
74881;BME280;63427;49.654;6.596;2023-07-13T01:50:08;99749.79;;;18.86;36.48
74881;BME280;63427;49.654;6.596;2023-07-13T01:52:32;99754.28;;;18.59;36.24
74881;BME280;63427;49.654;6.596;2023-07-13T01:54:58;99757.95;;;18.96;36.32
74881;BME280;63427;49.654;6.596;2023-07-13T01:57:23;99758.08;;;19.09;35.27
74881;BME280;63427;49.654;6.596;2023-07-13T01:59:48;99759.97;;;19.10;35.85
74881;BME280;63427;49.654;6.596;2023-07-13T02:02:14;99756.75;;;19.14;36.18
74881;BME280;63427;49.654;6.596;2023-07-13T02:04:40;99759.62;;;18.76;35.79
74881;BME280;63427;49.654;6.596;2023-07-13T02:07:05;99759.49;;;19.15;35.85
74881;BME280;63427;49.654;6.596;2023-07-13T02:09:30;99763.06;;;18.89;36.05
74881;BME280;63427;49.654;6.596;2023-07-13T02:11:56;99766.20;;;19.01;36.55
74881;BME280;63427;49.654;6.596;2023-07-13T02:14:21;99769.77;;;19.21;36.54
74881;BME280;63427;49.654;6.596;2023-07-13T02:16:46;99769.93;;;18.82;36.07
74881;BME280;63427;49.654;6.596;2023-07-13T02:19:12;99768.84;;;18.78;36.34
74881;BME280;63427;49.654;6.596;2023-07-13T02:21:37;99765.24;;;19.28;34.98
74881;BME280;63427;49.654;6.596;2023-07-13T02:24:03;99769.87;;;19.09;35.50
74881;BME280;63427;49.654;6.596;2023-07-13T02:26:28;99771.76;;;19.04;34.81
74881;BME280;63427;49.654;6.596;2023-07-13T02:28:53;99771.15;;;19.05;34.95
74881;BME280;63427;49.654;6.596;2023-07-13T02:31:18;99766.83;;;18.97;36.34
74881;BME280;63427;49.654;6.596;2023-07-13T02:33:44;99770.67;;;18.93;36.70
74881;BME280;63427;49.654;6.596;2023-07-13T02:36:10;99768.24;;;19.01;36.71
74881;BME280;63427;49.654;6.596;2023-07-13T02:38:35;99768.89;;;19.00;36.89
74881;BME280;63427;49.654;6.596;2023-07-13T02:41:00;99764.53;;;19.00;36.99
74881;BME280;63427;49.654;6.596;2023-07-13T02:43:25;99766.01;;;19.03;36.97
74881;BME280;63427;49.654;6.596;2023-07-13T02:45:51;99769.00;;;18.99;36.85
74881;BME280;63427;49.654;6.596;2023-07-13T02:48:16;99771.49;;;19.23;36.49
74881;BME280;63427;49.654;6.596;2023-07-13T02:50:41;99771.25;;;18.93;36.64
74881;BME280;63427;49.654;6.596;2023-07-13T02:53:06;99769.57;;;18.88;36.76
74881;BME280;63427;49.654;6.596;2023-07-13T02:55:32;99771.72;;;18.88;36.55
74881;BME280;63427;49.654;6.596;2023-07-13T02:57:58;99766.60;;;19.23;36.20
74881;BME280;63427;49.654;6.596;2023-07-13T03:00:24;99772.81;;;19.10;35.89
74881;BME280;63427;49.654;6.596;2023-07-13T03:02:49;99778.39;;;19.11;35.96
74881;BME280;63427;49.654;6.596;2023-07-13T03:05:15;99777.85;;;18.83;36.12
74881;BME280;63427;49.654;6.596;2023-07-13T03:07:40;99776.33;;;18.95;35.22
74881;BME280;63427;49.654;6.596;2023-07-13T03:10:06;99776.18;;;18.90;35.52
74881;BME280;63427;49.654;6.596;2023-07-13T03:12:30;99778.60;;;19.07;35.98
74881;BME280;63427;49.654;6.596;2023-07-13T03:14:57;99783.99;;;19.16;35.40
74881;BME280;63427;49.654;6.596;2023-07-13T03:17:21;99785.24;;;18.82;36.22
74881;BME280;63427;49.654;6.596;2023-07-13T03:19:46;99788.54;;;18.82;36.12
74881;BME280;63427;49.654;6.596;2023-07-13T03:22:11;99790.38;;;19.12;35.41
74881;BME280;63427;49.654;6.596;2023-07-13T03:24:37;99794.03;;;19.12;35.08
74881;BME280;63427;49.654;6.596;2023-07-13T03:27:04;99795.70;;;18.76;35.36
74881;BME280;63427;49.654;6.596;2023-07-13T03:29:27;99791.18;;;18.71;36.35
74881;BME280;63427;49.654;6.596;2023-07-13T03:31:53;99792.32;;;18.70;36.10
74881;BME280;63427;49.654;6.596;2023-07-13T03:34:18;99799.36;;;19.12;36.83
74881;BME280;63427;49.654;6.596;2023-07-13T03:36:43;99803.30;;;18.81;37.12
74881;BME280;63427;49.654;6.596;2023-07-13T03:39:09;99806.02;;;18.61;36.33
74881;BME280;63427;49.654;6.596;2023-07-13T03:41:34;99809.08;;;18.84;36.31
74881;BME280;63427;49.654;6.596;2023-07-13T03:43:59;99804.66;;;18.64;36.91
74881;BME280;63427;49.654;6.596;2023-07-13T03:46:25;99807.21;;;18.72;35.98
74881;BME280;63427;49.654;6.596;2023-07-13T03:48:50;99811.46;;;19.15;36.54
74881;BME280;63427;49.654;6.596;2023-07-13T03:51:17;99815.46;;;19.02;36.13
74881;BME280;63427;49.654;6.596;2023-07-13T03:53:43;99817.42;;;18.98;36.27
74881;BME280;63427;49.654;6.596;2023-07-13T03:56:07;99817.63;;;18.69;37.17
74881;BME280;63427;49.654;6.596;2023-07-13T03:58:33;99820.32;;;18.81;36.77
74881;BME280;63427;49.654;6.596;2023-07-13T04:00:57;99818.98;;;19.01;37.22
74881;BME280;63427;49.654;6.596;2023-07-13T04:03:22;99819.56;;;19.33;36.37
74881;BME280;63427;49.654;6.596;2023-07-13T04:05:47;99824.79;;;19.08;35.56
74881;BME280;63427;49.654;6.596;2023-07-13T04:08:13;99826.70;;;18.81;36.07
74881;BME280;63427;49.654;6.596;2023-07-13T04:10:38;99829.09;;;18.83;36.38
74881;BME280;63427;49.654;6.596;2023-07-13T04:13:03;99826.95;;;18.77;36.65
74881;BME280;63427;49.654;6.596;2023-07-13T04:15:29;99822.83;;;18.82;36.68
74881;BME280;63427;49.654;6.596;2023-07-13T04:17:54;99827.90;;;18.94;35.75
74881;BME280;63427;49.654;6.596;2023-07-13T04:20:19;99829.19;;;18.85;36.41
74881;BME280;63427;49.654;6.596;2023-07-13T04:22:44;99833.09;;;19.13;36.97
74881;BME280;63427;49.654;6.596;2023-07-13T04:25:10;99832.54;;;19.37;36.31
74881;BME280;63427;49.654;6.596;2023-07-13T04:27:35;99835.03;;;19.20;35.97
74881;BME280;63427;49.654;6.596;2023-07-13T04:30:00;99836.98;;;19.17;36.08
74881;BME280;63427;49.654;6.596;2023-07-13T04:32:26;99837.53;;;19.15;36.13
74881;BME280;63427;49.654;6.596;2023-07-13T04:34:51;99840.28;;;19.32;36.07
74881;BME280;63427;49.654;6.596;2023-07-13T04:37:16;99839.72;;;19.20;37.23
74881;BME280;63427;49.654;6.596;2023-07-13T04:39:42;99839.36;;;19.30;37.11
74881;BME280;63427;49.654;6.596;2023-07-13T04:42:07;99845.10;;;19.45;36.07
74881;BME280;63427;49.654;6.596;2023-07-13T04:44:32;99846.44;;;19.65;35.06
74881;BME280;63427;49.654;6.596;2023-07-13T04:46:57;99850.50;;;19.60;36.64
74881;BME280;63427;49.654;6.596;2023-07-13T04:49:23;99849.53;;;19.91;35.14
74881;BME280;63427;49.654;6.596;2023-07-13T04:51:48;99849.94;;;19.71;35.25
74881;BME280;63427;49.654;6.596;2023-07-13T04:54:13;99850.06;;;19.71;35.08
74881;BME280;63427;49.654;6.596;2023-07-13T04:56:39;99849.17;;;19.73;34.84
74881;BME280;63427;49.654;6.596;2023-07-13T04:59:04;99854.71;;;20.03;34.12
74881;BME280;63427;49.654;6.596;2023-07-13T05:01:29;99854.36;;;20.07;34.52
74881;BME280;63427;49.654;6.596;2023-07-13T05:03:54;99856.92;;;19.98;34.87
74881;BME280;63427;49.654;6.596;2023-07-13T05:06:20;99860.45;;;20.07;34.01
74881;BME280;63427;49.654;6.596;2023-07-13T05:08:45;99861.01;;;20.47;34.45
74881;BME280;63427;49.654;6.596;2023-07-13T05:11:10;99860.40;;;20.15;34.21
74881;BME280;63427;49.654;6.596;2023-07-13T05:13:36;99860.06;;;20.26;34.27
74881;BME280;63427;49.654;6.596;2023-07-13T05:16:02;99854.61;;;20.46;33.63
74881;BME280;63427;49.654;6.596;2023-07-13T05:18:27;99848.64;;;20.59;34.11
74881;BME280;63427;49.654;6.596;2023-07-13T05:20:57;99845.50;;;20.84;32.84
74881;BME280;63427;49.654;6.596;2023-07-13T05:23:16;99844.50;;;21.08;31.22
74881;BME280;63427;49.654;6.596;2023-07-13T05:25:42;99847.13;;;20.68;32.33
74881;BME280;63427;49.654;6.596;2023-07-13T05:28:07;99854.08;;;20.72;31.47
74881;BME280;63427;49.654;6.596;2023-07-13T05:30:32;99856.81;;;20.69;31.35
74881;BME280;63427;49.654;6.596;2023-07-13T05:32:57;99856.35;;;20.56;32.30
74881;BME280;63427;49.654;6.596;2023-07-13T05:35:23;99854.67;;;20.68;31.89
74881;BME280;63427;49.654;6.596;2023-07-13T05:37:48;99852.36;;;20.99;30.87
74881;BME280;63427;49.654;6.596;2023-07-13T05:40:13;99852.80;;;20.73;30.28
74881;BME280;63427;49.654;6.596;2023-07-13T05:42:38;99856.92;;;21.37;30.20
74881;BME280;63427;49.654;6.596;2023-07-13T05:45:04;99861.08;;;21.29;30.19
74881;BME280;63427;49.654;6.596;2023-07-13T05:47:29;99857.45;;;20.75;30.34
74881;BME280;63427;49.654;6.596;2023-07-13T05:49:54;99857.93;;;21.38;30.30
74881;BME280;63427;49.654;6.596;2023-07-13T05:52:19;99857.57;;;21.12;30.66
74881;BME280;63427;49.654;6.596;2023-07-13T05:54:45;99861.70;;;20.96;31.00
74881;BME280;63427;49.654;6.596;2023-07-13T05:57:10;99855.90;;;21.23;30.21
74881;BME280;63427;49.654;6.596;2023-07-13T05:59:35;99857.85;;;21.05;30.30
74881;BME280;63427;49.654;6.596;2023-07-13T06:02:00;99861.79;;;20.40;30.83
74881;BME280;63427;49.654;6.596;2023-07-13T06:04:25;99861.38;;;21.19;30.36
74881;BME280;63427;49.654;6.596;2023-07-13T06:06:51;99857.53;;;21.13;30.91
74881;BME280;63427;49.654;6.596;2023-07-13T06:09:16;99862.99;;;21.32;30.71
74881;BME280;63427;49.654;6.596;2023-07-13T06:11:41;99862.58;;;21.45;30.00
74881;BME280;63427;49.654;6.596;2023-07-13T06:14:07;99866.69;;;21.60;29.69
74881;BME280;63427;49.654;6.596;2023-07-13T06:16:32;99870.14;;;21.74;29.86
74881;BME280;63427;49.654;6.596;2023-07-13T06:18:57;99873.98;;;21.76;29.87
74881;BME280;63427;49.654;6.596;2023-07-13T06:21:23;99868.37;;;22.28;28.98
74881;BME280;63427;49.654;6.596;2023-07-13T06:23:50;99873.25;;;22.28;29.15
74881;BME280;63427;49.654;6.596;2023-07-13T06:26:13;99871.66;;;22.10;29.22
74881;BME280;63427;49.654;6.596;2023-07-13T06:28:38;99872.98;;;22.36;28.51
74881;BME280;63427;49.654;6.596;2023-07-13T06:31:05;99871.25;;;22.24;28.86
74881;BME280;63427;49.654;6.596;2023-07-13T06:33:28;99875.05;;;22.41;28.80
74881;BME280;63427;49.654;6.596;2023-07-13T06:35:53;99874.12;;;22.74;28.37
74881;BME280;63427;49.654;6.596;2023-07-13T06:38:18;99876.16;;;22.52;28.50
74881;BME280;63427;49.654;6.596;2023-07-13T06:40:43;99873.15;;;22.97;27.64
74881;BME280;63427;49.654;6.596;2023-07-13T06:43:08;99873.81;;;22.91;27.57
74881;BME280;63427;49.654;6.596;2023-07-13T06:45:40;99875.82;;;22.91;27.36
74881;BME280;63427;49.654;6.596;2023-07-13T06:47:59;99877.23;;;22.83;26.73
74881;BME280;63427;49.654;6.596;2023-07-13T06:50:24;99881.50;;;23.19;27.08
74881;BME280;63427;49.654;6.596;2023-07-13T06:52:50;99883.13;;;23.48;27.21
74881;BME280;63427;49.654;6.596;2023-07-13T06:55:15;99886.00;;;23.77;26.42
74881;BME280;63427;49.654;6.596;2023-07-13T06:57:40;99887.13;;;24.00;25.95
74881;BME280;63427;49.654;6.596;2023-07-13T07:00:06;99888.19;;;24.18;25.30
74881;BME280;63427;49.654;6.596;2023-07-13T07:02:30;99890.13;;;24.09;25.18
74881;BME280;63427;49.654;6.596;2023-07-13T07:04:55;99891.70;;;24.42;25.32
74881;BME280;63427;49.654;6.596;2023-07-13T07:07:23;99894.18;;;24.37;25.45
74881;BME280;63427;49.654;6.596;2023-07-13T07:09:45;99893.29;;;24.43;25.15
74881;BME280;63427;49.654;6.596;2023-07-13T07:12:10;99890.97;;;24.52;24.78
74881;BME280;63427;49.654;6.596;2023-07-13T07:14:36;99893.26;;;24.53;25.47
74881;BME280;63427;49.654;6.596;2023-07-13T07:17:01;99895.06;;;24.81;24.40
74881;BME280;63427;49.654;6.596;2023-07-13T07:19:26;99898.30;;;25.22;24.41
74881;BME280;63427;49.654;6.596;2023-07-13T07:21:51;99895.69;;;24.52;24.48
74881;BME280;63427;49.654;6.596;2023-07-13T07:24:16;99894.51;;;25.88;23.84
74881;BME280;63427;49.654;6.596;2023-07-13T07:26:41;99894.04;;;25.64;23.71
74881;BME280;63427;49.654;6.596;2023-07-13T07:29:06;99892.91;;;26.01;22.70
74881;BME280;63427;49.654;6.596;2023-07-13T07:31:31;99892.75;;;26.40;22.65
74881;BME280;63427;49.654;6.596;2023-07-13T07:33:56;99891.28;;;26.44;21.77
74881;BME280;63427;49.654;6.596;2023-07-13T07:36:22;99892.90;;;26.87;21.31
74881;BME280;63427;49.654;6.596;2023-07-13T07:38:48;99893.45;;;26.57;21.84
74881;BME280;63427;49.654;6.596;2023-07-13T07:41:14;99891.07;;;26.73;21.27
74881;BME280;63427;49.654;6.596;2023-07-13T07:43:39;99892.31;;;26.90;21.63
74881;BME280;63427;49.654;6.596;2023-07-13T07:46:05;99893.84;;;27.15;20.89
74881;BME280;63427;49.654;6.596;2023-07-13T07:48:31;99893.69;;;27.06;20.17
74881;BME280;63427;49.654;6.596;2023-07-13T07:50:57;99895.85;;;27.48;20.44
74881;BME280;63427;49.654;6.596;2023-07-13T07:53:23;99903.57;;;27.65;20.40
74881;BME280;63427;49.654;6.596;2023-07-13T07:55:48;99900.80;;;27.53;20.20
74881;BME280;63427;49.654;6.596;2023-07-13T07:58:14;99900.17;;;27.72;20.54
74881;BME280;63427;49.654;6.596;2023-07-13T08:00:40;99893.98;;;27.84;19.60
74881;BME280;63427;49.654;6.596;2023-07-13T08:03:41;99900.06;;;27.62;19.92
74881;BME280;63427;49.654;6.596;2023-07-13T08:05:32;99889.05;;;28.11;20.07
74881;BME280;63427;49.654;6.596;2023-07-13T08:07:57;99897.08;;;28.83;19.06
74881;BME280;63427;49.654;6.596;2023-07-13T08:10:23;99900.61;;;28.33;19.10
74881;BME280;63427;49.654;6.596;2023-07-13T08:12:49;99899.23;;;28.59;18.92
74881;BME280;63427;49.654;6.596;2023-07-13T08:15:16;99897.36;;;28.59;19.00
74881;BME280;63427;49.654;6.596;2023-07-13T08:17:43;99896.70;;;28.23;18.99
74881;BME280;63427;49.654;6.596;2023-07-13T08:20:08;99896.80;;;28.04;19.10
74881;BME280;63427;49.654;6.596;2023-07-13T08:22:32;99902.45;;;28.83;18.96
74881;BME280;63427;49.654;6.596;2023-07-13T08:24:59;99895.72;;;28.75;18.89
74881;BME280;63427;49.654;6.596;2023-07-13T08:27:24;99891.45;;;28.30;19.13
74881;BME280;63427;49.654;6.596;2023-07-13T08:29:50;99891.69;;;28.81;18.43
74881;BME280;63427;49.654;6.596;2023-07-13T08:32:16;99894.45;;;28.73;18.81
74881;BME280;63427;49.654;6.596;2023-07-13T08:34:41;99890.84;;;27.43;19.99
74881;BME280;63427;49.654;6.596;2023-07-13T08:37:07;99888.68;;;28.43;19.23
74881;BME280;63427;49.654;6.596;2023-07-13T08:39:33;99891.34;;;28.28;19.18
74881;BME280;63427;49.654;6.596;2023-07-13T08:42:02;99888.35;;;28.67;18.61
74881;BME280;63427;49.654;6.596;2023-07-13T08:44:30;99888.89;;;29.04;18.43
74881;BME280;63427;49.654;6.596;2023-07-13T08:46:53;99886.55;;;28.99;18.28
74881;BME280;63427;49.654;6.596;2023-07-13T08:49:18;99886.76;;;29.28;17.69
74881;BME280;63427;49.654;6.596;2023-07-13T08:51:45;99892.56;;;29.14;17.85
74881;BME280;63427;49.654;6.596;2023-07-13T08:54:15;99887.86;;;29.34;18.42
74881;BME280;63427;49.654;6.596;2023-07-13T08:56:33;99884.81;;;29.23;17.68
74881;BME280;63427;49.654;6.596;2023-07-13T08:59:02;99881.58;;;28.99;17.47
74881;BME280;63427;49.654;6.596;2023-07-13T09:01:30;99884.18;;;29.10;17.26
74881;BME280;63427;49.654;6.596;2023-07-13T09:03:56;99889.22;;;29.61;17.66
74881;BME280;63427;49.654;6.596;2023-07-13T09:06:16;99887.65;;;29.82;17.63
74881;BME280;63427;49.654;6.596;2023-07-13T09:08:48;99881.41;;;30.07;17.16
74881;BME280;63427;49.654;6.596;2023-07-13T09:11:20;99891.02;;;29.69;16.54
74881;BME280;63427;49.654;6.596;2023-07-13T09:13:40;99892.62;;;30.26;16.67
74881;BME280;63427;49.654;6.596;2023-07-13T09:15:59;99891.06;;;30.26;16.32
74881;BME280;63427;49.654;6.596;2023-07-13T09:18:30;99887.45;;;30.06;16.09
74881;BME280;63427;49.654;6.596;2023-07-13T09:20:54;99888.46;;;29.91;16.45
74881;BME280;63427;49.654;6.596;2023-07-13T09:23:19;99891.28;;;30.07;16.16
74881;BME280;63427;49.654;6.596;2023-07-13T09:25:42;99890.30;;;30.40;15.84
74881;BME280;63427;49.654;6.596;2023-07-13T09:28:11;99893.70;;;30.37;15.54
74881;BME280;63427;49.654;6.596;2023-07-13T09:30:38;99889.48;;;30.74;15.65
74881;BME280;63427;49.654;6.596;2023-07-13T09:32:59;99888.70;;;31.07;15.78
74881;BME280;63427;49.654;6.596;2023-07-13T09:35:27;99876.49;;;30.48;15.77
74881;BME280;63427;49.654;6.596;2023-07-13T09:37:50;99875.41;;;31.36;15.32
74881;BME280;63427;49.654;6.596;2023-07-13T09:40:21;99877.03;;;31.88;15.81
74881;BME280;63427;49.654;6.596;2023-07-13T09:42:42;99875.35;;;31.70;14.99
74881;BME280;63427;49.654;6.596;2023-07-13T09:45:07;99878.33;;;32.11;14.73
74881;BME280;63427;49.654;6.596;2023-07-13T09:47:38;99874.87;;;31.97;14.95
74881;BME280;63427;49.654;6.596;2023-07-13T09:50:00;99883.88;;;31.51;14.69
74881;BME280;63427;49.654;6.596;2023-07-13T09:52:26;99881.51;;;31.16;15.14
74881;BME280;63427;49.654;6.596;2023-07-13T09:54:52;99882.03;;;31.25;14.93
74881;BME280;63427;49.654;6.596;2023-07-13T09:57:18;99876.17;;;30.97;15.34
74881;BME280;63427;49.654;6.596;2023-07-13T09:59:43;99881.84;;;31.05;15.46
74881;BME280;63427;49.654;6.596;2023-07-13T10:04:33;99877.40;;;30.87;15.37
74881;BME280;63427;49.654;6.596;2023-07-13T10:07:04;99880.21;;;31.04;15.47
74881;BME280;63427;49.654;6.596;2023-07-13T10:09:24;99883.08;;;30.61;16.12
74881;BME280;63427;49.654;6.596;2023-07-13T10:11:50;99888.38;;;30.73;15.91
74881;BME280;63427;49.654;6.596;2023-07-13T10:14:17;99892.21;;;31.00;15.64
74881;BME280;63427;49.654;6.596;2023-07-13T10:16:43;99894.93;;;30.80;15.76
74881;BME280;63427;49.654;6.596;2023-07-13T10:19:12;99891.82;;;29.50;16.21
74881;BME280;63427;49.654;6.596;2023-07-13T10:21:38;99891.69;;;30.28;15.80
74881;BME280;63427;49.654;6.596;2023-07-13T10:24:04;99895.16;;;30.15;16.02
74881;BME280;63427;49.654;6.596;2023-07-13T10:26:27;99894.44;;;30.05;15.30
74881;BME280;63427;49.654;6.596;2023-07-13T10:28:52;99895.65;;;30.27;15.46
74881;BME280;63427;49.654;6.596;2023-07-13T10:31:16;99892.21;;;30.08;15.34
74881;BME280;63427;49.654;6.596;2023-07-13T10:33:41;99895.17;;;30.38;15.22
74881;BME280;63427;49.654;6.596;2023-07-13T10:36:13;99900.87;;;30.33;15.07
74881;BME280;63427;49.654;6.596;2023-07-13T10:38:32;99903.70;;;30.00;14.97
74881;BME280;63427;49.654;6.596;2023-07-13T10:41:01;99903.01;;;30.39;14.72
74881;BME280;63427;49.654;6.596;2023-07-13T10:43:25;99897.89;;;30.59;15.41
74881;BME280;63427;49.654;6.596;2023-07-13T10:45:49;99896.29;;;31.35;15.20
74881;BME280;63427;49.654;6.596;2023-07-13T10:48:16;99892.63;;;30.88;14.31
74881;BME280;63427;49.654;6.596;2023-07-13T10:50:44;99899.22;;;30.13;15.59
74881;BME280;63427;49.654;6.596;2023-07-13T10:53:19;99906.05;;;29.62;15.80
74881;BME280;63427;49.654;6.596;2023-07-13T10:55:35;99906.29;;;29.72;15.68
74881;BME280;63427;49.654;6.596;2023-07-13T10:58:00;99904.45;;;29.72;15.23
74881;BME280;63427;49.654;6.596;2023-07-13T11:00:24;99910.16;;;29.84;15.18
74881;BME280;63427;49.654;6.596;2023-07-13T11:02:56;99912.41;;;29.98;15.39
74881;BME280;63427;49.654;6.596;2023-07-13T11:05:25;99904.09;;;29.54;14.93
74881;BME280;63427;49.654;6.596;2023-07-13T11:10:45;99905.67;;;29.96;15.42
74881;BME280;63427;49.654;6.596;2023-07-13T11:12:51;99900.75;;;28.31;16.51
74881;BME280;63427;49.654;6.596;2023-07-13T11:15:05;99907.31;;;29.60;16.05
74881;BME280;63427;49.654;6.596;2023-07-13T11:17:33;99904.30;;;30.63;15.31
74881;BME280;63427;49.654;6.596;2023-07-13T11:19:51;99900.62;;;30.20;15.48
74881;BME280;63427;49.654;6.596;2023-07-13T11:22:23;99903.63;;;29.94;14.89
74881;BME280;63427;49.654;6.596;2023-07-13T11:24:57;99897.88;;;30.08;15.16
74881;BME280;63427;49.654;6.596;2023-07-13T11:29:37;99911.85;;;30.12;15.69
74881;BME280;63427;49.654;6.596;2023-07-13T11:32:00;99901.67;;;30.71;15.44
74881;BME280;63427;49.654;6.596;2023-07-13T11:34:27;99903.88;;;30.94;14.88
74881;BME280;63427;49.654;6.596;2023-07-13T11:36:49;99904.90;;;31.04;14.94
74881;BME280;63427;49.654;6.596;2023-07-13T11:39:18;99898.76;;;30.78;14.77
74881;BME280;63427;49.654;6.596;2023-07-13T11:41:45;99901.90;;;30.76;14.85
74881;BME280;63427;49.654;6.596;2023-07-13T11:44:12;99911.00;;;30.62;14.45
74881;BME280;63427;49.654;6.596;2023-07-13T11:46:32;99917.99;;;29.93;14.64
74881;BME280;63427;49.654;6.596;2023-07-13T11:48:58;99918.66;;;30.29;15.05
74881;BME280;63427;49.654;6.596;2023-07-13T11:51:26;99908.20;;;30.74;15.36
74881;BME280;63427;49.654;6.596;2023-07-13T11:53:51;99908.00;;;30.89;14.73
74881;BME280;63427;49.654;6.596;2023-07-13T11:56:15;99919.30;;;30.93;14.95
74881;BME280;63427;49.654;6.596;2023-07-13T11:58:41;99930.78;;;30.94;14.64
74881;BME280;63427;49.654;6.596;2023-07-13T12:01:10;99926.47;;;30.19;14.54
74881;BME280;63427;49.654;6.596;2023-07-13T12:03:33;99928.67;;;29.12;15.50
74881;BME280;63427;49.654;6.596;2023-07-13T12:06:00;99921.92;;;30.05;15.24
74881;BME280;63427;49.654;6.596;2023-07-13T12:08:24;99925.53;;;30.38;15.23
74881;BME280;63427;49.654;6.596;2023-07-13T12:11:00;99920.51;;;30.67;15.53
74881;BME280;63427;49.654;6.596;2023-07-13T12:13:15;99918.20;;;30.76;14.50
74881;BME280;63427;49.654;6.596;2023-07-13T12:15:43;99916.92;;;30.21;15.49
74881;BME280;63427;49.654;6.596;2023-07-13T12:18:13;99922.44;;;30.51;15.48
74881;BME280;63427;49.654;6.596;2023-07-13T12:20:37;99922.46;;;30.72;15.02
74881;BME280;63427;49.654;6.596;2023-07-13T12:22:58;99931.86;;;30.23;15.37
74881;BME280;63427;49.654;6.596;2023-07-13T12:25:24;99934.01;;;29.36;15.66
74881;BME280;63427;49.654;6.596;2023-07-13T12:27:50;99930.02;;;29.75;15.91
74881;BME280;63427;49.654;6.596;2023-07-13T12:30:24;99929.93;;;30.26;15.74
74881;BME280;63427;49.654;6.596;2023-07-13T12:32:41;99929.11;;;29.50;16.08
74881;BME280;63427;49.654;6.596;2023-07-13T12:35:14;99926.71;;;29.92;15.59
74881;BME280;63427;49.654;6.596;2023-07-13T12:37:34;99928.78;;;30.03;15.05
74881;BME280;63427;49.654;6.596;2023-07-13T12:39:58;99922.57;;;30.85;15.35
74881;BME280;63427;49.654;6.596;2023-07-13T12:42:26;99921.68;;;31.16;14.42
74881;BME280;63427;49.654;6.596;2023-07-13T12:44:50;99920.58;;;31.73;15.08
74881;BME280;63427;49.654;6.596;2023-07-13T12:47:15;99921.57;;;31.23;14.39
74881;BME280;63427;49.654;6.596;2023-07-13T12:49:43;99923.61;;;31.15;15.05
74881;BME280;63427;49.654;6.596;2023-07-13T12:52:15;99920.07;;;31.53;14.58
74881;BME280;63427;49.654;6.596;2023-07-13T12:54:32;99922.96;;;31.31;14.59
74881;BME280;63427;49.654;6.596;2023-07-13T12:56:59;99915.46;;;31.56;14.61
74881;BME280;63427;49.654;6.596;2023-07-13T12:59:27;99913.56;;;31.27;13.79